Главная страница
METAR-TAF:

METAR-TAF

Аэропорты :

Уппсала, Швеция

широта: 59-53N, долгота: 017-36E, высота над уровнем моря: 21 м

Текущие метеонаблюдения

Эта сводка был подготовлена 1 час и 5 минут назад, в 04:50 UTC
Ветер 6 Узел от юго-восточный
Температура 11°C
Влажность 94%
Давление 1004 hPa
Видимость 10 км и более

METAR: ESCM 210450Z AUTO 14006KT 9999 BKN021/// BKN027/// 11/10 Q1004

Время: 07:55 (05:55 UTC)

Прогноз

Эта сводка был подготовлена 18 часа и 25 минут назад, в 11:30 UTC
Прогноз действительный с 20-го 12 UTC до 20-го 14 UTC
Ветер 24 Узел от западный-юго-западный с порывами до 34 Узел
Видимость 10 км и более
небольшая облачность на высоте 4000 фута

TAF: ESCM 201130Z 2012/2014 24024G34KT 9999 FEW040 RMK MIL

Метеонаблюдения и прогнозы для более 4000 аэропортов (сводки METAR и TAF).

Имеющиеся станции представлены на карте желтыми и красными точками.

Чтобы увидеть название станции, наведите на нее мышь.

Затем щелкните, чтобы увидеть метеонаблюдения и метеопрогнозы.

Управление картой: чтобы увеличить масштаб, щелкните зеленые кнопки с черным крестиком; чтобы уменьшить масштаб, щелкните зеленую кнопку с тире; для просмотра соседних карт щелкайте зеленые стрелки.


METAR-TAF: